• Join FlightAware (Why Join?)
  • Login
  • US Flag 
11:30AM EDT


 

Airport Tracker/Info


-or-


 

Live Flight TrackerFlight Track Log ✈ SWA16 ✈ 26-Apr-2013 ✈ KAMA - KLAS

Flight Track Log - Related Links

Times and Time Zones

All times are in EDT time to prevent confusion due to time zone crossing. See the SWA16 flight status page for this flight to view local times or setup timezone preferences in your user account.

Time Position Orientation Groundspeed Altitude Reporting Facility
EDT Latitude Longitude Course Direction KTS MPH feet Rate Location/Type
02:24PM 35.2008 -101.9322 269° West 235 270 11,100  Level Albuquerque Center
02:25PM 35.2069 -102.0300 274° West 278 320 14,100 2,460 Climbing Albuquerque Center
02:26PM 35.2169 -102.1458 276° West 335 386 16,200 2,580 Climbing Albuquerque Center
02:27PM 35.2242 -102.2692 274° West 361 415 19,500 3,060 Climbing Albuquerque Center
02:28PM 35.2000 -102.4741 270° West  Level FlightAware Approximate
02:28PM 35.2317 -102.3881 274° West 355 409 22,600  Level Albuquerque Center
02:29PM 35.2397 -102.5117 275° West 362 417 24,600 1,980 Climbing Albuquerque Center
02:30PM 35.2486 -102.6433 275° West 382 440 26,700 1,980 Climbing Albuquerque Center
02:31PM 35.2572 -102.7733 275° West 385 443 28,700 2,220 Climbing Albuquerque Center
02:32PM 35.2669 -102.9317 274° West 388 447 31,300 2,100 Climbing Albuquerque Center
02:33PM 35.2744 -103.0536 274° West 384 442 33,100 1,680 Climbing Albuquerque Center
02:34PM 35.2822 -103.1825 274° West 378 435 34,800 1,500 Climbing Albuquerque Center
02:35PM 35.2900 -103.3122 274° West 379 436 36,200 1,380 Climbing Albuquerque Center
02:36PM 35.2969 -103.4406 274° West 377 434 37,700 840 Climbing Albuquerque Center
02:37PM 35.3047 -103.5883 274° West 372 428 38,000 120 Climbing Albuquerque Center
02:39PM 35.3117 -103.7189 274° West 379 436 38,000  Level Albuquerque Center
02:40PM 35.3189 -103.8469 274° West 378 435 38,000  Level Albuquerque Center
02:41PM 35.3258 -103.9797 274° West 380 437 38,000  Level Albuquerque Center
02:42PM 35.3333 -104.1097 274° West 384 442 38,000  Level Albuquerque Center
02:43PM 35.3381 -104.2406 273° West 384 442 38,000  Level Albuquerque Center
02:44PM 35.3444 -104.3864 273° West 384 442 38,000  Level Albuquerque Center
02:45PM 35.3506 -104.5158 273° West 381 438 38,000  Level Albuquerque Center
02:46PM 35.3567 -104.6458 273° West 381 438 38,000  Level Albuquerque Center
02:47PM 35.3628 -104.7767 273° West 382 440 38,000  Level Albuquerque Center
02:48PM 35.3681 -104.9103 273° West 389 448 38,000  Level Albuquerque Center
02:49PM 35.3747 -105.0439 274° West 390 449 38,000  Level Albuquerque Center
02:50PM 35.3803 -105.1778 273° West 389 448 38,000  Level Albuquerque Center
02:51PM 35.3853 -105.3114 273° West 390 449 38,000  Level Albuquerque Center
02:52PM 35.3925 -105.4658 273° West 387 445 38,000  Level Albuquerque Center
02:53PM 35.3964 -105.5964 272° West 382 440 38,000  Level Albuquerque Center
02:54PM 35.4003 -105.7286 272° West 383 441 38,000  Level Albuquerque Center
02:55PM 35.4053 -105.8600 273° West 383 441 38,000  Level Albuquerque Center
02:56PM 35.4097 -105.9917 272° West 386 444 38,000  Level Albuquerque Center
02:57PM 35.4150 -106.1233 273° West 387 445 38,000  Level Albuquerque Center
02:58PM 35.4208 -106.2561 273° West 391 450 38,000  Level Albuquerque Center
02:59PM 35.4253 -106.3903 272° West 395 455 38,000  Level Albuquerque Center
03:00PM 35.4294 -106.5492 272° West 392 451 38,000  Level Albuquerque Center
03:01PM 35.4333 -106.6825 272° West 393 452 38,000  Level Albuquerque Center
03:02PM 35.4375 -106.8144 272° West 392 451 38,000  Level Albuquerque Center
03:03PM 35.4414 -106.9475 272° West 394 453 38,000  Level Albuquerque Center
03:04PM 35.4444 -107.0803 272° West 393 452 38,000  Level Albuquerque Center
03:05PM 35.4475 -107.2308 271° West 391 450 38,000  Level Albuquerque Center
03:06PM 35.4522 -107.3811 272° West 394 453 38,000  Level Albuquerque Center
03:07PM 35.4547 -107.5092 271° West 394 453 38,000  Level Albuquerque Center
03:08PM 35.4581 -107.6378 272° West 394 453 38,000  Level Albuquerque Center
03:09PM 35.4611 -107.7886 271° West 395 455 38,000  Level Albuquerque Center
03:10PM 35.4622 -107.9181 271° West 395 455 38,000  Level Albuquerque Center
03:11PM 35.4661 -108.0681 272° West 395 455 38,000  Level Albuquerque Center
03:13PM 35.4672 -108.1992 271° West 398 458 38,000  Level Albuquerque Center
03:14PM 35.4694 -108.3500 271° West 396 456 38,000  Level Albuquerque Center
03:15PM 35.4719 -108.4808 271° West 398 458 38,000  Level Albuquerque Center
03:16PM 35.4739 -108.6125 271° West 402 463 38,000  Level Albuquerque Center
03:17PM 35.4756 -108.7658 271° West 401 461 38,000  Level Albuquerque Center
03:18PM 35.4772 -108.8975 271° West 402 463 38,000  Level Albuquerque Center
03:19PM 35.4864 -109.0503 274° West 401 461 38,000  Level Albuquerque Center
03:20PM 35.4925 -109.1825 273° West 402 463 38,000  Level Albuquerque Center
03:21PM 35.5003 -109.3378 274° West 405 466 38,000  Level Albuquerque Center
03:22PM 35.5067 -109.4717 273° West 407 468 38,000  Level Albuquerque Center
03:23PM 35.5103 -109.6047 272° West 407 468 38,000  Level Albuquerque Center
03:24PM 35.5175 -109.7592 273° West 406 467 38,000  Level Albuquerque Center
03:25PM 35.5231 -109.8922 273° West 408 470 38,000  Level Albuquerque Center
03:26PM 35.5278 -110.0492 272° West 410 472 38,000  Level Albuquerque Center
03:27PM 35.5325 -110.1831 273° West 410 472 38,000  Level Albuquerque Center
03:28PM 35.5383 -110.3378 273° West 408 470 38,000  Level Albuquerque Center
03:29PM 35.5431 -110.4714 273° West 409 471 38,000  Level Albuquerque Center
03:30PM 35.5483 -110.6267 272° West 408 470 38,000 -300 Level Albuquerque Center
03:31PM 35.5542 -110.7597 273° West 408 470 37,400 -780 Descending Albuquerque Center
03:32PM 35.5589 -110.8900 273° West 403 464 36,500 -1,020 Descending Albuquerque Center
03:33PM 35.5631 -111.0397 272° West 395 455 35,300 -1,500 Descending Albuquerque Center
03:34PM 35.5683 -111.1686 273° West 396 456 33,400 -1,860 Descending Albuquerque Center
03:35PM 35.5719 -111.3197 272° West 396 456 31,500 -1,440 Descending Albuquerque Center
03:36PM 35.5767 -111.4511 273° West 395 455 30,500 -780 Descending Albuquerque Center
03:37PM 35.5808 -111.5872 272° West 401 461 30,000 -300 Descending Albuquerque Center
03:38PM 35.5839 -111.7228 272° West 399 459 30,000  Level Albuquerque Center
03:39PM 35.5875 -111.8608 272° West 405 466 30,000  Level Albuquerque Center
03:40PM 35.5967 -112.0236 274° West 403 464 30,000  Level Albuquerque Center
03:41PM 35.5972 -112.1597 270° West 400 460 30,000  Level Albuquerque Center
03:42PM 35.6008 -112.2958 272° West 400 460 30,000  Level Albuquerque Center
03:43PM 35.6053 -112.4328 272° West 404 465 30,000  Level Albuquerque Center
03:44PM 35.6067 -112.5156 271° West 404 465 30,000  Level Los Angeles Center
03:45PM 35.6100 -112.6478 272° West 396 456 30,000  Level Los Angeles Center
03:46PM 35.6128 -112.7842 271° West 397 457 30,000  Level Los Angeles Center
03:47PM 35.6147 -112.9472 271° West 403 464 30,000  Level Los Angeles Center
03:48PM 35.6183 -113.0847 272° West 404 465 30,000  Level Los Angeles Center
03:49PM 35.6194 -113.2253 271° West 408 470 30,000 -900 Level Los Angeles Center
03:50PM 35.6214 -113.3536 271° West 399 459 28,200 -1,860 Descending Los Angeles Center
03:51PM 35.6239 -113.5072 271° West 380 437 25,900 -2,220 Descending Los Angeles Center
03:52PM 35.6394 -113.6525 278° West 362 417 23,200 -2,280 Descending Los Angeles Center
03:53PM 35.6583 -113.7739 281° West 361 415 21,200 -1,920 Descending Los Angeles Center
03:55PM 35.6742 -113.8950 279° West 362 417 19,200 -1,740 Descending Los Angeles Center
03:56PM 35.6914 -114.0111 280° West 349 402 17,600 -1,860 Descending Los Angeles Center
03:56PM 35.7031 -114.1133 278° West 340 391 15,800 -1,440 Descending Los Angeles Center
03:58PM 35.7603 -114.2325 301° West 337 388 14,700 -1,020 Descending Los Angeles Center
03:58PM 35.7842 -114.2797 302° West 343 395 14,200 -900 Descending Los Angeles Center
03:59PM 35.8069 -114.3325 298° West 337 388 13,800 -1,560 Descending Los Angeles Center
04:00PM 35.8692 -114.4431 305° West 326 375 11,600 -1,680 Descending Los Angeles Center
04:01PM 35.9419 -114.5025 327° Northwest 314 361 10,300 -1,380 Descending Los Angeles Center
04:01PM 35.9575 -114.5319 303° West 303 349 9,800 -1,140 Descending Los Angeles Center
04:02PM 35.9867 -114.5828 305° West 285 328 9,200 -960 Descending Los Angeles Center
04:03PM 36.0406 -114.6717 307° West 256 295 8,000 -660 Descending Los Angeles Center
04:04PM 36.0711 -114.7192 309° West 251 289 7,900 -480 Descending Los Angeles Center
04:05PM 36.0742 -114.7981 273° West 244 281 7,100 -960 Descending Los Angeles Center
04:06PM 36.0747 -114.8944 270° West 233 268 6,000 -1,260 Descending Los Angeles Center
04:07PM 36.0739 -114.9742 269° West 235 270 4,500 -1,320 Descending Los Angeles Center
04:08PM 36.0744 -115.0406 271° West 216 249 3,300 -1,020 Descending Los Angeles Center
04:09PM 36.0742 -115.0964 270° West 189 217 2,500 -660 Descending Los Angeles Center
04:10PM 36.0750 -115.1439 271° West 163 188 2,000 -540 Descending Los Angeles Center
04:12PM 36.0667 -115.1500 270° West  Level FlightAware Approximate